Time;durP1;ratioP1;P1;durP2;ratioP2;P2;SDS_P1;SDS_P2;PMS_P1;PMS_P2;Temp;Humidity;BMP_temperature;BMP_pressure;BME280_temperature;BME280_humidity;BME280_pressure;Samples;Min_cycle;Max_cycle;Signal;HPM_P1;HPM_P2
2023/04/17 00:01:05;;;;;;;15.25;7.88;;;11.60;99.90;;;11.62;100.00;101749.31;5145127;28;20047;-80
2023/04/17 00:03:37;;;;;;;16.23;8.77;;;11.60;99.90;;;11.62;100.00;101745.81;5146555;28;20115;-83
2023/04/17 00:06:12;;;;;;;16.63;8.38;;;11.60;99.90;;;11.59;100.00;101751.75;5140447;28;20431;-82
2023/04/17 00:08:45;;;;;;;17.20;8.90;;;11.50;99.90;;;11.58;100.00;101747.38;5135468;28;20517;-80
2023/04/17 00:11:17;;;;;;;15.95;8.27;;;11.50;99.90;;;11.57;100.00;101745.59;5151599;28;20110;-82
2023/04/17 00:13:48;;;;;;;17.27;9.00;;;11.50;99.90;;;11.57;100.00;101749.91;5134492;28;20071;-83
2023/04/17 00:16:21;;;;;;;18.38;8.88;;;11.50;99.90;;;11.57;100.00;101750.81;5132278;28;20433;-82
2023/04/17 00:18:53;;;;;;;19.75;8.88;;;11.50;99.90;;;11.55;100.00;101739.41;5139753;28;20047;-81
2023/04/17 00:21:28;;;;;;;20.70;9.85;;;11.50;99.90;;;11.53;100.00;101730.59;5133724;28;20051;-81
2023/04/17 00:24:00;;;;;;;20.83;10.35;;;11.50;99.90;;;11.50;100.00;101735.69;5149451;28;20047;-81
2023/04/17 00:26:33;;;;;;;24.85;12.65;;;11.50;99.90;;;11.48;100.00;101732.13;5145578;28;20047;-82
2023/04/17 00:29:05;;;;;;;23.05;11.27;;;11.50;99.90;;;11.44;100.00;101732.78;5143415;28;20501;-82
2023/04/17 00:31:37;;;;;;;28.25;12.82;;;11.40;99.90;;;11.44;100.00;101735.41;5131113;28;20043;-81
2023/04/17 00:34:09;;;;;;;25.40;12.32;;;11.40;99.90;;;11.43;100.00;101736.22;5134976;28;20053;-82
2023/04/17 00:36:42;;;;;;;25.92;12.25;;;11.40;99.90;;;11.43;100.00;101741.47;5158894;28;20051;-81
2023/04/17 00:39:15;;;;;;;20.90;10.57;;;11.40;99.90;;;11.44;100.00;101727.56;5137052;28;20062;-82
2023/04/17 00:41:47;;;;;;;28.17;12.73;;;11.40;99.90;;;11.46;100.00;101727.63;5146740;28;20101;-82
2023/04/17 00:44:19;;;;;;;25.33;12.10;;;11.40;99.90;;;11.46;100.00;101725.91;5148049;28;20129;-83
2023/04/17 00:46:51;;;;;;;26.75;12.82;;;11.40;99.90;;;11.45;100.00;101731.97;5145053;28;20086;-83
2023/04/17 00:49:24;;;;;;;24.58;11.75;;;11.40;99.90;;;11.46;100.00;101730.25;5134016;28;20054;-83
2023/04/17 00:51:58;;;;;;;22.40;11.60;;;11.40;99.90;;;11.46;100.00;101731.13;5145262;28;20047;-81
2023/04/17 00:54:31;;;;;;;24.13;10.32;;;11.40;99.90;;;11.48;100.00;101733.84;5135441;28;20119;-81
2023/04/17 00:57:03;;;;;;;22.38;11.43;;;11.40;99.90;;;11.46;100.00;101728.53;5132215;28;20074;-84
2023/04/17 00:59:37;;;;;;;23.58;10.93;;;11.40;99.90;;;11.46;100.00;101736.38;5146318;28;20058;-81
2023/04/17 01:02:11;;;;;;;23.15;11.18;;;11.40;99.90;;;11.46;100.00;101723.31;5135643;28;20049;-83
2023/04/17 01:04:43;;;;;;;22.70;11.60;;;11.40;99.90;;;11.45;100.00;101724.13;5129260;28;20046;-83
2023/04/17 01:07:17;;;;;;;25.20;11.48;;;11.40;99.90;;;11.47;100.00;101726.81;5147770;28;20054;-83
2023/04/17 01:09:49;;;;;;;22.65;12.15;;;11.40;99.90;;;11.46;100.00;101720.69;5129679;28;20047;-81
2023/04/17 01:12:24;;;;;;;21.48;11.75;;;11.40;99.90;;;11.45;100.00;101721.53;5127809;29;20065;-82
2023/04/17 01:14:57;;;;;;;23.58;10.68;;;11.40;99.90;;;11.42;100.00;101721.41;5129210;29;20090;-82
2023/04/17 01:17:30;;;;;;;22.33;10.77;;;11.40;99.90;;;11.44;100.00;101726.69;5137789;28;20049;-82
2023/04/17 01:20:05;;;;;;;20.98;10.68;;;11.40;99.90;;;11.44;100.00;101727.56;5144418;28;20071;-83
2023/04/17 01:22:38;;;;;;;25.33;11.32;;;11.40;99.90;;;11.43;100.00;101720.56;5129311;29;20509;-82
2023/04/17 01:25:12;;;;;;;25.02;11.77;;;11.40;99.90;;;11.44;100.00;101718.84;5132729;28;20039;-81
2023/04/17 01:27:45;;;;;;;22.92;11.40;;;11.40;99.90;;;11.42;100.00;101724.00;5146199;28;20043;-82
2023/04/17 01:30:17;;;;;;;27.17;12.23;;;11.40;99.90;;;11.43;100.00;101723.19;5141912;28;20053;-83
2023/04/17 01:32:58;;;;;;;24.73;11.10;;;11.40;99.90;;;11.42;100.00;101724.00;5128794;28;20458;-81
2023/04/17 01:35:30;;;;;;;23.33;11.95;;;11.40;99.90;;;11.42;100.00;101726.63;5129078;29;20047;-81
2023/04/17 01:38:03;;;;;;;23.77;11.38;;;11.40;99.90;;;11.40;100.00;101728.25;5128746;29;20043;-83
2023/04/17 01:40:36;;;;;;;24.63;11.65;;;11.40;99.90;;;11.37;100.00;101715.97;5138854;28;20055;-82
2023/04/17 01:43:09;;;;;;;22.55;10.88;;;11.30;99.90;;;11.38;100.00;101722.06;5122576;29;20062;-82
2023/04/17 01:45:41;;;;;;;25.85;12.15;;;11.30;99.90;;;11.37;100.00;101721.19;5138700;28;20043;-81
2023/04/17 01:48:13;;;;;;;24.75;12.23;;;11.30;99.90;;;11.36;100.00;101718.50;5131428;29;20051;-84
2023/04/17 01:50:45;;;;;;;28.02;13.10;;;11.30;99.90;;;11.36;100.00;101721.13;5131586;29;20069;-82
2023/04/17 01:53:17;;;;;;;22.60;11.05;;;11.30;99.90;;;11.36;100.00;101723.72;5131392;29;20055;-82
2023/04/17 01:55:50;;;;;;;24.00;11.07;;;11.30;99.90;;;11.34;100.00;101726.25;5131013;28;20051;-83
2023/04/17 01:58:22;;;;;;;23.08;11.07;;;11.30;99.90;;;11.34;100.00;101725.34;5145577;28;20562;-83
2023/04/17 02:00:55;;;;;;;24.05;11.27;;;11.30;99.90;;;11.33;100.00;101728.78;5149515;28;20095;-83
2023/04/17 02:03:27;;;;;;;20.90;11.02;;;11.30;99.90;;;11.33;100.00;101732.28;5150875;28;20440;-82
2023/04/17 02:05:59;;;;;;;22.38;10.45;;;11.30;99.90;;;11.32;100.00;101733.13;5148768;28;20043;-83
2023/04/17 02:08:31;;;;;;;22.45;10.95;;;11.30;99.90;;;11.32;100.00;101727.00;5144654;28;20051;-82
2023/04/17 02:11:05;;;;;;;22.83;11.73;;;11.20;99.90;;;11.30;100.00;101728.66;5144096;28;20044;-83
2023/04/17 02:13:37;;;;;;;24.67;11.57;;;11.30;99.90;;;11.29;100.00;101730.38;5139077;28;20416;-81
2023/04/17 02:16:11;;;;;;;22.98;10.70;;;11.20;99.90;;;11.30;100.00;101728.66;5152431;28;20045;-82
2023/04/17 02:18:43;;;;;;;21.63;10.00;;;11.20;99.90;;;11.30;100.00;101728.66;5145380;28;20460;-80
2023/04/17 02:21:15;;;;;;;24.23;11.77;;;11.20;99.90;;;11.31;100.00;101725.22;5159863;28;20055;-81
2023/04/17 02:23:47;;;;;;;22.20;11.23;;;11.20;99.90;;;11.31;100.00;101727.84;5153670;28;20553;-81
2023/04/17 02:26:20;;;;;;;23.63;11.45;;;11.20;99.90;;;11.29;100.00;101719.94;5139767;28;20039;-82
2023/04/17 02:28:52;;;;;;;23.55;11.27;;;11.20;99.90;;;11.27;100.00;101724.16;5151136;28;20046;-83
2023/04/17 02:31:25;;;;;;;23.90;12.13;;;11.20;99.90;;;11.27;100.00;101720.66;5148315;28;20042;-81
2023/04/17 02:33:57;;;;;;;23.95;11.18;;;11.20;99.90;;;11.27;100.00;101718.06;5149914;28;20049;-81
2023/04/17 02:36:29;;;;;;;22.77;11.30;;;11.20;99.90;;;11.27;100.00;101718.06;5144538;28;20043;-83
2023/04/17 02:39:01;;;;;;;24.08;11.93;;;11.20;99.90;;;11.27;100.00;101723.28;5139249;28;20134;-82
2023/04/17 02:41:35;;;;;;;25.10;12.45;;;11.20;99.90;;;11.27;100.00;101718.94;5142915;28;20076;-82
2023/04/17 02:44:09;;;;;;;23.70;11.77;;;11.20;99.90;;;11.27;100.00;101713.72;5136527;28;20420;-82
2023/04/17 02:46:41;;;;;;;24.00;11.65;;;11.20;99.90;;;11.28;100.00;101717.22;5150869;28;20097;-82
2023/04/17 02:49:14;;;;;;;26.83;12.07;;;11.20;99.90;;;11.28;100.00;101725.06;5155523;28;20134;-82
2023/04/17 02:51:46;;;;;;;26.90;12.30;;;11.20;99.90;;;11.27;100.00;101724.16;5147385;28;20067;-83
2023/04/17 02:54:18;;;;;;;38.17;16.42;;;11.20;99.90;;;11.25;100.00;101717.09;5154963;28;20058;-83
2023/04/17 02:56:52;;;;;;;28.92;14.82;;;11.20;99.90;;;11.24;100.00;101720.53;5152586;28;20042;-83
2023/04/17 02:59:25;;;;;;;30.35;14.40;;;11.20;99.90;;;11.22;100.00;101720.47;5149963;28;20047;-81
2023/04/17 03:01:58;;;;;;;34.13;14.68;;;11.20;99.90;;;11.21;100.00;101723.00;5155621;28;20126;-82
2023/04/17 03:04:33;;;;;;;33.53;16.27;;;11.20;99.90;;;11.19;100.00;101716.81;5155831;28;20065;-84
2023/04/17 03:07:08;;;;;;;29.85;14.20;;;11.20;99.90;;;11.19;100.00;101719.41;5165316;28;20043;-81
2023/04/17 03:09:41;;;;;;;31.90;14.95;;;11.20;99.90;;;11.19;100.00;101714.22;5156597;28;20063;-81
2023/04/17 03:12:16;;;;;;;29.40;15.10;;;11.20;99.90;;;11.18;100.00;101712.44;5146920;28;20082;-82
2023/04/17 03:14:48;;;;;;;29.92;13.50;;;11.20;99.90;;;11.18;100.00;101712.44;5157890;28;20047;-77
2023/04/17 03:17:20;;;;;;;30.58;14.32;;;11.20;99.90;;;11.19;100.00;101714.22;5162704;28;20023;-81
2023/04/17 03:19:53;;;;;;;29.13;13.63;;;11.20;99.90;;;11.20;100.00;101721.22;5146429;28;20042;-83
2023/04/17 03:22:25;;;;;;;29.33;14.02;;;11.20;99.90;;;11.19;100.00;101717.72;5150172;28;20051;-83
2023/04/17 03:24:57;;;;;;;30.80;14.20;;;11.20;99.90;;;11.20;100.00;101718.59;5145938;28;20042;-81
2023/04/17 03:27:32;;;;;;;33.03;15.07;;;11.20;99.90;;;11.21;100.00;101728.22;5147872;28;20047;-82
2023/04/17 03:30:06;;;;;;;28.73;13.38;;;11.20;99.90;;;11.20;100.00;101727.31;5135360;28;20107;-81
2023/04/17 03:32:39;;;;;;;28.58;13.55;;;11.20;99.90;;;11.21;100.00;101728.22;5148042;28;20051;-84
2023/04/17 03:35:11;;;;;;;26.52;13.10;;;11.20;99.90;;;11.23;100.00;101723.97;5151722;28;20046;-81
2023/04/17 03:37:43;;;;;;;28.17;14.00;;;11.20;99.90;;;11.23;100.00;101723.97;5136485;28;20047;-83
2023/04/17 03:40:17;;;;;;;25.60;12.40;;;11.20;99.90;;;11.22;100.00;101715.25;5136440;28;20055;-79
2023/04/17 03:42:53;;;;;;;26.55;13.75;;;11.20;99.90;;;11.20;100.00;101726.44;5153277;28;20058;-82
2023/04/17 03:45:25;;;;;;;29.52;13.55;;;11.20;99.90;;;11.21;100.00;101723.00;5150206;28;20043;-82
2023/04/17 03:47:57;;;;;;;32.42;15.93;;;11.20;99.90;;;11.19;100.00;101724.66;5154050;28;20057;-81
2023/04/17 03:50:30;;;;;;;30.95;14.52;;;11.20;99.90;;;11.17;100.00;101723.69;5154242;28;20066;-81
2023/04/17 03:53:02;;;;;;;30.42;14.15;;;11.20;99.90;;;11.17;100.00;101727.19;5157511;28;20067;-82
2023/04/17 03:55:36;;;;;;;30.10;13.68;;;11.10;99.90;;;11.18;100.00;101720.25;5149329;28;20051;-81
2023/04/17 03:58:10;;;;;;;32.40;15.18;;;11.10;99.90;;;11.17;100.00;101721.06;5154471;28;20174;-81
2023/04/17 04:00:44;;;;;;;28.35;13.90;;;11.10;99.90;;;11.16;100.00;101727.13;5154172;28;20070;-81
2023/04/17 04:03:16;;;;;;;32.60;15.95;;;11.10;99.90;;;11.13;100.00;101726.13;5151480;28;20039;-83
2023/04/17 04:05:48;;;;;;;29.70;15.02;;;11.10;99.90;;;11.11;100.00;101730.41;5149781;28;20054;-83
2023/04/17 04:08:21;;;;;;;34.92;15.63;;;11.10;99.90;;;11.12;100.00;101734.78;5159777;28;20047;-82
2023/04/17 04:10:56;;;;;;;36.50;16.48;;;11.10;99.90;;;11.12;100.00;101724.34;5152443;28;20062;-81
2023/04/17 04:13:39;;;;;;;32.97;15.93;;;11.10;99.90;;;11.07;100.00;101725.84;5155214;28;20078;-81
2023/04/17 04:16:12;;;;;;;39.67;17.52;;;11.10;99.90;;;11.06;100.00;101729.28;5138135;28;20055;-81
2023/04/17 04:18:45;;;;;;;37.13;18.08;;;11.10;99.90;;;11.02;100.00;101724.75;5142724;28;20047;-82
2023/04/17 04:21:22;;;;;;;37.58;17.60;;;11.10;99.90;;;10.99;100.00;101724.59;5145489;28;20134;-84
2023/04/17 04:23:55;;;;;;;34.75;17.42;;;11.00;99.90;;;10.99;100.00;101721.97;5151360;28;20145;-82
2023/04/17 04:26:27;;;;;;;35.70;17.80;;;11.00;99.90;;;10.98;100.00;101729.75;5156559;28;20098;-83
2023/04/17 04:29:02;;;;;;;38.63;18.02;;;11.00;99.90;;;10.96;100.00;101734.91;5155012;28;20046;-81
2023/04/17 04:31:45;;;;;;;33.85;15.55;;;11.00;99.90;;;10.96;100.00;101732.28;5155327;28;20519;-82
2023/04/17 04:34:17;;;;;;;31.67;15.43;;;11.00;99.90;;;10.96;100.00;101734.91;5189430;23;20062;-79
2023/04/17 04:36:49;;;;;;;33.75;16.65;;;11.00;99.90;;;10.94;100.00;101739.13;5142838;28;20066;-78
2023/04/17 04:39:32;;;;;;;33.63;15.30;;;11.00;99.90;;;10.95;100.00;101746.13;5147772;28;20121;-79
2023/04/17 04:42:08;;;;;;;37.33;16.85;;;11.00;99.90;;;10.96;100.00;101744.44;5146539;28;20526;-80
2023/04/17 04:45:06;;;;;;;31.52;14.40;;;11.00;99.90;;;10.96;100.00;101750.56;5133323;28;20130;-78
2023/04/17 04:47:40;;;;;;;33.08;15.43;;;11.00;99.90;;;10.96;100.00;101742.72;5126370;28;20062;-79
2023/04/17 04:50:12;;;;;;;31.63;15.43;;;10.90;99.90;;;10.97;100.00;101749.72;5134243;28;20066;-78
2023/04/17 04:52:44;;;;;;;33.50;15.57;;;11.00;99.90;;;10.96;100.00;101747.94;5128300;28;20075;-79
2023/04/17 04:55:30;;;;;;;30.95;14.82;;;11.00;99.90;;;10.97;100.00;101754.94;5126104;28;20404;-79
2023/04/17 04:58:02;;;;;;;27.67;13.43;;;11.00;99.90;;;10.97;100.00;101754.94;5126489;28;20416;-79
2023/04/17 05:00:35;;;;;;;27.50;13.45;;;11.00;99.90;;;10.98;100.00;101754.13;5125004;28;20050;-79
2023/04/17 05:03:08;;;;;;;29.35;13.43;;;11.00;99.90;;;10.99;100.00;101755.91;5127275;28;20610;-78
2023/04/17 05:05:42;;;;;;;27.25;12.45;;;11.00;99.90;;;10.99;100.00;101760.22;5126964;28;20051;-78
2023/04/17 05:08:17;;;;;;;26.98;13.18;;;10.90;99.90;;;11.00;100.00;101762.00;5126793;28;20098;-79
2023/04/17 05:10:57;;;;;;;25.27;12.73;;;11.00;99.90;;;11.00;100.00;101764.63;5126093;28;20054;-79
2023/04/17 05:13:29;;;;;;;27.20;12.57;;;10.90;99.90;;;11.00;100.00;101769.84;5125308;28;20055;-79
2023/04/17 05:16:03;;;;;;;27.50;13.32;;;11.00;99.90;;;11.00;100.00;101772.44;5123696;28;20043;-78
2023/04/17 05:18:36;;;;;;;27.05;13.15;;;11.00;99.90;;;11.00;100.00;101770.72;5126419;28;20070;-78
2023/04/17 05:21:08;;;;;;;27.15;13.63;;;11.00;99.90;;;10.99;100.00;101774.16;5124729;28;20308;-78
2023/04/17 05:23:42;;;;;;;31.13;14.65;;;10.90;99.90;;;10.98;100.00;101779.31;5123884;28;20592;-78
2023/04/17 05:26:15;;;;;;;28.65;12.98;;;11.00;99.90;;;10.97;100.00;101775.81;5125970;28;20120;-79
2023/04/17 05:28:48;;;;;;;26.42;13.05;;;11.00;99.90;;;10.98;100.00;101782.81;5127186;28;20114;-78
2023/04/17 05:31:27;;;;;;;28.83;13.30;;;11.00;99.90;;;10.99;100.00;101782.00;5127519;28;20509;-78
2023/04/17 05:34:00;;;;;;;;;;;11.00;99.90;;;10.99;100.00;101783.72;5125548;28;20070;-79
2023/04/17 05:36:33;;;;;;;27.90;13.18;;;11.00;99.90;;;10.98;100.00;101780.22;5127486;28;19926;-79
2023/04/17 05:39:07;;;;;;;;;;;10.90;99.90;;;10.98;100.00;101782.81;5126235;28;20046;-79
2023/04/17 05:41:42;;;;;;;;;;;11.00;99.90;;;10.98;100.00;101782.81;5126979;28;19944;-79
2023/04/17 05:44:14;;;;;;;28.35;12.63;;;10.90;99.90;;;10.96;100.00;101778.34;5129652;28;19923;-80
2023/04/17 05:46:47;;;;;;;29.60;13.65;;;10.90;99.90;;;10.96;100.00;101789.69;5137337;28;20071;-79
2023/04/17 05:49:19;;;;;;;25.13;13.10;;;10.90;99.90;;;10.96;100.00;101794.00;5142014;28;20051;-79
2023/04/17 05:51:52;;;;;;;26.48;12.80;;;10.90;99.90;;;10.97;100.00;101783.66;5128466;28;20047;-78
2023/04/17 05:54:26;;;;;;;23.52;12.55;;;11.00;99.90;;;10.98;100.00;101781.94;5129936;28;20047;-80
2023/04/17 05:56:59;;;;;;;26.25;13.27;;;11.00;99.90;;;11.02;100.00;101790.00;5139262;28;20106;-79
2023/04/17 05:59:31;;;;;;;27.42;13.10;;;11.00;99.90;;;11.02;100.00;101790.00;5131220;28;20047;-79
2023/04/17 06:02:06;;;;;;;25.75;12.93;;;11.00;99.90;;;11.02;100.00;101791.66;5130324;28;20047;-80
2023/04/17 06:04:40;;;;;;;24.23;11.85;;;11.00;99.90;;;11.02;100.00;101795.19;5127062;28;20055;-77
2023/04/17 06:07:12;;;;;;;27.00;14.20;;;11.00;99.90;;;11.02;100.00;101790.00;5134999;28;20051;-78
2023/04/17 06:09:44;;;;;;;25.48;13.10;;;11.00;99.90;;;11.06;100.00;101791.00;5126911;28;20035;-77
2023/04/17 06:12:16;;;;;;;25.27;13.07;;;11.00;99.90;;;11.10;100.00;101799.06;5126502;28;20134;-78
2023/04/17 06:14:50;;;;;;;25.20;11.98;;;11.10;99.90;;;11.19;100.00;101797.72;5126206;28;20139;-77
2023/04/17 06:17:27;;;;;;;26.98;12.80;;;11.10;99.90;;;11.26;100.00;101799.81;5125154;28;20588;-77
2023/04/17 06:19:59;;;;;;;26.25;12.30;;;11.10;99.90;;;11.29;100.00;101802.56;5125759;28;20130;-77
2023/04/17 06:22:32;;;;;;;24.30;12.07;;;11.20;99.90;;;11.31;100.00;101803.53;5125146;28;20663;-78
2023/04/17 06:25:06;;;;;;;22.73;11.80;;;11.20;99.90;;;11.34;100.00;101814.09;5125272;28;20039;-76
2023/04/17 06:27:38;;;;;;;27.27;13.73;;;11.20;99.90;;;11.33;100.00;101807.09;5126221;28;20047;-76
2023/04/17 06:30:11;;;;;;;24.27;11.88;;;11.20;99.90;;;11.33;100.00;101812.31;5132582;28;20051;-76
2023/04/17 06:32:54;;;;;;;24.08;11.68;;;11.30;99.90;;;11.31;100.00;101813.97;5125439;28;20538;-77
2023/04/17 06:35:26;;;;;;;21.30;11.88;;;11.20;99.90;;;11.30;100.00;101814.81;5136453;28;20047;-76
2023/04/17 06:38:04;;;;;;;19.02;9.90;;;11.20;99.90;;;11.32;100.00;101815.75;5124645;28;20043;-77
2023/04/17 06:40:37;;;;;;;21.40;10.50;;;11.20;99.90;;;11.36;100.00;101820.31;5125864;28;20070;-79
2023/04/17 06:43:11;;;;;;;23.88;12.38;;;11.30;99.90;;;11.41;100.00;101821.44;5127170;28;20074;-82
2023/04/17 06:45:44;;;;;;;23.88;10.98;;;11.30;99.90;;;11.38;100.00;101816.94;5124739;28;20043;-80
2023/04/17 06:48:17;;;;;;;20.27;11.13;;;11.30;99.90;;;11.41;100.00;101821.44;5126389;28;20047;-81
2023/04/17 06:50:50;;;;;;;20.70;10.93;;;11.30;99.90;;;11.38;100.00;101822.16;5126420;28;20051;-81
2023/04/17 06:53:22;;;;;;;22.10;9.98;;;11.40;99.90;;;11.58;100.00;101825.72;5144632;28;20047;-81
2023/04/17 06:55:54;;;;;;;19.42;10.25;;;11.50;99.90;;;11.73;100.00;101824.63;5134503;28;20043;-82
2023/04/17 06:58:26;;;;;;;22.80;11.30;;;11.70;99.90;;;11.85;100.00;101831.34;5131668;28;20035;-77
2023/04/17 07:00:58;;;;;;;24.13;10.77;;;11.80;99.90;;;12.09;100.00;101828.09;5126857;28;20044;-82
2023/04/17 07:03:31;;;;;;;23.05;10.73;;;12.00;99.90;;;12.21;100.00;101831.25;5126876;28;20419;-82
2023/04/17 07:06:04;;;;;;;21.23;10.90;;;12.10;99.90;;;12.32;100.00;101823.84;5125400;28;20049;-82
2023/04/17 07:08:36;;;;;;;20.33;10.07;;;12.20;99.90;;;12.37;100.00;101832.81;5131326;28;20090;-83
2023/04/17 07:11:08;;;;;;;21.85;10.20;;;12.30;99.90;;;12.41;100.00;101832.13;5130523;28;20132;-81
2023/04/17 07:13:40;;;;;;;19.73;10.52;;;12.30;99.90;;;12.36;100.00;101849.31;5127883;28;20183;-78
2023/04/17 07:16:12;;;;;;;22.40;11.65;;;12.30;99.90;;;12.25;100.00;101848.84;5122454;28;20054;-81
2023/04/17 07:18:46;;;;;;;19.85;10.43;;;12.20;99.90;;;12.13;100.00;101845.72;5130040;28;20047;-79
2023/04/17 07:21:18;;;;;;;20.52;10.02;;;12.10;99.90;;;12.03;100.00;101848.72;5129300;28;20487;-81
2023/04/17 07:23:50;;;;;;;19.23;10.25;;;12.00;99.90;;;11.98;100.00;101853.72;5129625;28;20109;-80
2023/04/17 07:26:22;;;;;;;18.42;9.07;;;12.00;99.90;;;11.94;100.00;101857.94;5126540;28;20059;-79
2023/04/17 07:28:54;;;;;;;17.60;10.20;;;11.90;99.90;;;11.94;100.00;101855.31;5127734;28;20058;-80
2023/04/17 07:31:27;;;;;;;25.20;13.35;;;11.90;99.90;;;11.96;100.00;101860.59;5128396;28;20074;-79
2023/04/17 07:34:00;;;;;;;20.25;10.35;;;11.90;99.90;;;12.00;100.00;101867.78;5129942;28;20085;-80
2023/04/17 07:36:32;;;;;;;21.33;11.65;;;11.90;99.90;;;12.00;100.00;101859.94;5127441;28;20058;-81
2023/04/17 07:39:05;;;;;;;27.20;13.60;;;11.90;99.90;;;12.02;100.00;101866.13;5129254;28;20540;-81
2023/04/17 07:41:37;;;;;;;23.67;11.82;;;11.90;99.90;;;12.00;100.00;101861.63;5129249;28;20051;-81
2023/04/17 07:44:09;;;;;;;20.58;9.88;;;11.90;99.90;;;11.99;100.00;101870.28;5130905;28;20055;-81
2023/04/17 07:46:41;;;;;;;20.55;9.73;;;11.90;99.90;;;11.99;100.00;101876.41;5128461;28;20055;-80
2023/04/17 07:49:14;;;;;;;22.02;10.48;;;11.90;99.90;;;12.01;100.00;101877.41;5120319;28;20051;-81
2023/04/17 07:51:46;;;;;;;23.05;12.05;;;11.90;99.90;;;12.03;100.00;101880.97;5120491;28;20047;-80
2023/04/17 07:54:18;;;;;;;24.17;11.63;;;11.90;99.90;;;12.03;100.00;101883.59;5126459;28;20123;-81
2023/04/17 07:56:50;;;;;;;21.95;11.02;;;12.00;99.90;;;12.13;100.00;101885.81;5126729;28;20746;-81
2023/04/17 07:59:22;;;;;;;20.77;10.05;;;12.10;99.90;;;12.14;100.00;101882.38;5120051;28;20051;-81
2023/04/17 08:01:54;;;;;;;25.63;11.65;;;12.10;99.90;;;12.15;100.00;101884.16;5126304;28;20047;-80
2023/04/17 08:04:28;;;;;;;20.27;10.60;;;12.10;99.90;;;12.10;100.00;101883.03;5126662;28;20528;-81
2023/04/17 08:07:00;;;;;;;19.88;10.30;;;12.00;99.90;;;12.10;100.00;101885.66;5127027;28;20057;-80
2023/04/17 08:09:32;;;;;;;22.20;10.73;;;12.00;99.90;;;12.10;100.00;101888.25;5115857;28;20059;-79
2023/04/17 08:12:05;;;;;;;25.10;12.18;;;12.10;99.90;;;12.14;100.00;101890.19;5124613;28;20053;-78
2023/04/17 08:14:37;;;;;;;17.13;8.98;;;12.10;99.90;;;12.29;100.00;101887.38;5125472;28;20050;-78
2023/04/17 08:17:09;;;;;;;19.00;10.30;;;12.20;99.90;;;12.50;100.00;101895.28;5127247;28;20039;-81
2023/04/17 08:19:43;;;;;;;21.45;9.75;;;12.30;99.90;;;12.70;100.00;101880.47;5126761;28;20432;-80
2023/04/17 08:22:15;;;;;;;27.10;13.23;;;12.40;99.90;;;12.83;100.00;101889.75;5122637;28;20501;-80
2023/04/17 08:24:47;;;;;;;20.98;10.48;;;12.60;99.90;;;12.87;100.00;101886.44;5122505;28;20051;-79
2023/04/17 08:27:20;;;;;;;17.20;8.60;;;12.60;99.90;;;12.98;100.00;101879.94;5126732;28;20457;-79
2023/04/17 08:29:52;;;;;;;19.77;10.10;;;12.70;99.90;;;13.30;100.00;101891.75;5127054;28;20055;-79
2023/04/17 08:32:24;;;;;;;21.33;10.32;;;12.90;99.90;;;13.62;100.00;101890.44;5126552;28;20461;-79
2023/04/17 08:34:59;;;;;;;20.33;9.82;;;13.20;99.90;;;13.85;100.00;101891.34;5125262;28;20074;-80
2023/04/17 08:37:31;;;;;;;18.55;9.45;;;13.40;99.90;;;13.97;100.00;101886.59;5126098;28;20058;-80
2023/04/17 08:40:05;;;;;;;20.67;10.70;;;13.60;99.90;;;13.96;100.00;101895.28;5125614;28;20150;-81
2023/04/17 08:42:39;;;;;;;16.95;8.85;;;13.60;99.90;;;14.34;100.00;101885.31;5125633;28;20055;-81
2023/04/17 08:45:13;;;;;;;17.05;8.63;;;13.80;99.90;;;14.55;100.00;101891.41;5125882;28;20051;-78
2023/04/17 08:47:45;;;;;;;16.75;8.98;;;14.00;99.90;;;14.66;100.00;101891.78;5125308;28;20155;-79
2023/04/17 08:50:20;;;;;;;26.95;9.18;;;14.20;99.90;;;14.76;100.00;101891.28;5118109;28;20047;-79
2023/04/17 08:52:52;;;;;;;15.68;8.35;;;14.30;99.90;;;15.02;100.00;101891.28;5125289;28;20105;-79
2023/04/17 08:55:27;;;;;;;14.95;8.20;;;14.50;99.90;;;14.98;100.00;101889.38;5125477;28;20043;-79
2023/04/17 08:58:02;;;;;;;13.65;7.95;;;14.50;99.90;;;14.90;100.00;101891.75;5126633;28;20043;-80
2023/04/17 09:00:36;;;;;;;;;;;14.60;99.90;;;14.85;100.00;101888.94;5119686;28;20082;-80
2023/04/17 09:03:10;;;;;;;15.73;7.90;;;14.60;99.90;;;15.06;100.00;101895.78;5126021;28;20017;-79
2023/04/17 09:05:45;;;;;;;;;;;14.60;99.90;;;15.08;99.06;101899.38;5127286;28;20449;-81
2023/04/17 09:08:19;;;;;;;12.70;6.63;;;14.70;99.90;;;15.24;99.35;101892.88;5121702;28;19957;-81
2023/04/17 09:10:53;;;;;;;13.88;6.70;;;14.80;99.90;;;15.28;99.57;101882.53;5120437;28;20117;-81
2023/04/17 09:13:28;;;;;;;13.43;6.75;;;14.80;99.90;;;15.37;99.11;101893.31;5126093;28;20054;-82
2023/04/17 09:16:08;;;;;;;12.95;7.25;;;14.90;99.90;;;15.53;97.64;101891.22;5125843;28;20488;-80
2023/04/17 09:18:41;;;;;;;13.18;7.57;;;15.00;99.90;;;16.06;96.61;101886.75;5125292;28;20043;-80
2023/04/17 09:21:18;;;;;;;11.57;5.85;;;15.40;99.90;;;16.65;95.12;101883.19;5125108;28;20047;-82
2023/04/17 09:23:54;;;;;;;14.30;7.32;;;15.90;99.90;;;17.09;91.34;101880.88;5127238;28;20577;-81
2023/04/17 09:26:28;;;;;;;11.00;5.95;;;16.40;99.90;;;17.46;90.32;101880.00;5127897;28;20081;-81
2023/04/17 09:29:03;;;;;;;10.30;6.13;;;16.70;99.90;;;17.64;86.68;101890.09;5128385;28;20513;-81
2023/04/17 09:31:36;;;;;;;9.80;5.80;;;17.00;99.90;;;17.71;85.33;101896.41;5129814;28;20047;-80
2023/04/17 09:34:10;;;;;;;10.65;6.05;;;17.10;99.90;;;17.60;82.95;101889.16;5129689;28;20047;-80
2023/04/17 09:36:44;;;;;;;10.18;5.75;;;17.10;98.70;;;17.30;82.88;101885.78;5129656;28;20051;-80
2023/04/17 09:39:19;;;;;;;11.98;6.57;;;17.00;98.30;;;17.01;83.66;101885.91;5127743;28;20043;-80
2023/04/17 09:42:01;;;;;;;10.50;6.03;;;16.70;98.40;;;16.70;83.85;101891.25;5129372;28;20523;-80
2023/04/17 09:44:35;;;;;;;10.00;5.85;;;16.50;98.30;;;16.43;84.62;101896.56;5130684;28;20043;-80
2023/04/17 09:47:10;;;;;;;11.43;6.38;;;16.20;98.80;;;16.23;84.46;101896.00;5130629;28;21100;-80
2023/04/17 09:49:48;;;;;;;9.60;5.63;;;16.00;98.60;;;16.29;85.03;101894.44;5133000;28;20050;-81
2023/04/17 09:52:23;;;;;;;12.00;6.80;;;16.00;99.10;;;16.55;83.18;101895.19;5123559;28;20051;-79
2023/04/17 09:54:55;;;;;;;11.15;6.25;;;16.10;98.40;;;16.58;81.57;101888.25;5129180;28;20133;-83
2023/04/17 09:57:27;;;;;;;10.90;6.95;;;16.20;97.50;;;16.54;82.46;101881.97;5128100;28;20048;-81
2023/04/17 10:00:03;;;;;;;8.65;5.07;;;16.20;97.80;;;16.47;83.44;101878.28;5129523;28;20058;-80
2023/04/17 10:02:38;;;;;;;11.63;5.32;;;16.10;98.20;;;16.36;83.83;101892.00;5129199;28;20057;-81
2023/04/17 10:05:11;;;;;;;10.77;6.20;;;16.00;98.30;;;16.11;82.76;101890.41;5130084;28;20110;-79
2023/04/17 10:07:44;;;;;;;12.38;5.63;;;15.80;97.60;;;15.99;83.00;101891.81;5130083;28;20043;-82
2023/04/17 10:10:23;;;;;;;10.07;5.93;;;15.80;97.80;;;15.94;83.53;101882.91;5143974;28;20058;-83
2023/04/17 10:12:59;;;;;;;10.05;5.43;;;15.70;98.10;;;16.06;83.90;101886.75;5129103;28;20074;-82
2023/04/17 10:15:32;;;;;;;10.45;6.10;;;15.70;98.40;;;16.33;83.83;101877.03;5128045;28;20058;-82
2023/04/17 10:18:21;;;;;;;10.75;6.20;;;15.90;98.60;;;16.31;81.33;101891.00;5128109;28;20058;-83
2023/04/17 10:20:54;;;;;;;11.85;5.97;;;15.90;97.10;;;16.19;81.09;101875.75;5128103;28;20047;-82
2023/04/17 10:23:30;;;;;;;11.20;5.93;;;15.90;96.80;;;16.11;81.62;101875.53;5129266;28;20556;-82